sensor_id;sensor_type;location;lat;lon;timestamp;temperature;humidity
6978;DHT22;3529;53.244;10.414;2022-09-12T00:00:27;11.60;99.90
6978;DHT22;3529;53.244;10.414;2022-09-12T00:02:53;11.60;99.90
6978;DHT22;3529;53.244;10.414;2022-09-12T00:05:19;11.60;99.90
6978;DHT22;3529;53.244;10.414;2022-09-12T00:07:44;11.50;99.90
6978;DHT22;3529;53.244;10.414;2022-09-12T00:10:10;11.50;99.90
6978;DHT22;3529;53.244;10.414;2022-09-12T00:12:36;11.50;99.90
6978;DHT22;3529;53.244;10.414;2022-09-12T00:15:01;11.50;99.90
6978;DHT22;3529;53.244;10.414;2022-09-12T00:17:27;11.40;99.90
6978;DHT22;3529;53.244;10.414;2022-09-12T00:19:53;11.40;99.90
6978;DHT22;3529;53.244;10.414;2022-09-12T00:22:19;11.40;99.90
6978;DHT22;3529;53.244;10.414;2022-09-12T00:24:45;11.40;99.90
6978;DHT22;3529;53.244;10.414;2022-09-12T00:27:10;11.30;99.90
6978;DHT22;3529;53.244;10.414;2022-09-12T00:29:36;11.30;99.90
6978;DHT22;3529;53.244;10.414;2022-09-12T00:32:01;11.30;99.90
6978;DHT22;3529;53.244;10.414;2022-09-12T00:34:27;11.20;99.90
6978;DHT22;3529;53.244;10.414;2022-09-12T00:36:52;11.20;99.90
6978;DHT22;3529;53.244;10.414;2022-09-12T00:39:18;11.20;99.90
6978;DHT22;3529;53.244;10.414;2022-09-12T00:41:44;11.10;99.90
6978;DHT22;3529;53.244;10.414;2022-09-12T00:51:59;11.00;99.90
6978;DHT22;3529;53.244;10.414;2022-09-12T00:54:30;11.00;99.90
6978;DHT22;3529;53.244;10.414;2022-09-12T00:57:00;10.90;99.90
6978;DHT22;3529;53.244;10.414;2022-09-12T00:59:31;10.90;99.90
6978;DHT22;3529;53.244;10.414;2022-09-12T01:01:58;10.80;99.90
6978;DHT22;3529;53.244;10.414;2022-09-12T01:04:25;10.80;99.90
6978;DHT22;3529;53.244;10.414;2022-09-12T01:06:53;10.80;99.90
6978;DHT22;3529;53.244;10.414;2022-09-12T01:09:21;10.80;99.90
6978;DHT22;3529;53.244;10.414;2022-09-12T01:11:48;10.80;99.90
6978;DHT22;3529;53.244;10.414;2022-09-12T01:14:16;10.70;99.90
6978;DHT22;3529;53.244;10.414;2022-09-12T01:16:42;10.70;99.90
6978;DHT22;3529;53.244;10.414;2022-09-12T01:20:05;10.70;99.90
6978;DHT22;3529;53.244;10.414;2022-09-12T01:28:30;10.60;99.90
6978;DHT22;3529;53.244;10.414;2022-09-12T01:31:05;10.60;99.90
6978;DHT22;3529;53.244;10.414;2022-09-12T01:38:55;10.40;99.90
6978;DHT22;3529;53.244;10.414;2022-09-12T01:41:28;10.40;99.90
6978;DHT22;3529;53.244;10.414;2022-09-12T01:44:00;10.40;99.90
6978;DHT22;3529;53.244;10.414;2022-09-12T01:46:44;10.40;99.90
6978;DHT22;3529;53.244;10.414;2022-09-12T01:49:19;10.40;99.90
6978;DHT22;3529;53.244;10.414;2022-09-12T01:51:55;10.30;99.90
6978;DHT22;3529;53.244;10.414;2022-09-12T01:54:28;10.30;99.90
6978;DHT22;3529;53.244;10.414;2022-09-12T01:56:57;10.30;99.90
6978;DHT22;3529;53.244;10.414;2022-09-12T01:59:36;10.30;99.90
6978;DHT22;3529;53.244;10.414;2022-09-12T02:02:14;10.20;99.90
6978;DHT22;3529;53.244;10.414;2022-09-12T02:05:02;10.20;99.90
6978;DHT22;3529;53.244;10.414;2022-09-12T02:07:38;10.20;99.90
6978;DHT22;3529;53.244;10.414;2022-09-12T02:10:19;10.10;99.90
6978;DHT22;3529;53.244;10.414;2022-09-12T02:13:08;10.10;99.90
6978;DHT22;3529;53.244;10.414;2022-09-12T02:15:43;10.10;99.90
6978;DHT22;3529;53.244;10.414;2022-09-12T02:18:13;10.00;99.90
6978;DHT22;3529;53.244;10.414;2022-09-12T02:20:41;10.00;99.90
6978;DHT22;3529;53.244;10.414;2022-09-12T02:23:11;10.00;99.90
6978;DHT22;3529;53.244;10.414;2022-09-12T02:25:41;10.00;99.90
6978;DHT22;3529;53.244;10.414;2022-09-12T02:28:17;9.90;99.90
6978;DHT22;3529;53.244;10.414;2022-09-12T02:36:27;9.80;99.90
6978;DHT22;3529;53.244;10.414;2022-09-12T02:38:57;9.80;99.90
6978;DHT22;3529;53.244;10.414;2022-09-12T02:41:23;9.80;99.90
6978;DHT22;3529;53.244;10.414;2022-09-12T02:43:50;9.80;99.90
6978;DHT22;3529;53.244;10.414;2022-09-12T02:46:32;9.80;99.90
6978;DHT22;3529;53.244;10.414;2022-09-12T02:49:01;9.70;99.90
6978;DHT22;3529;53.244;10.414;2022-09-12T02:51:26;9.70;99.90
6978;DHT22;3529;53.244;10.414;2022-09-12T02:53:52;9.70;99.90
6978;DHT22;3529;53.244;10.414;2022-09-12T02:56:26;9.60;99.90
6978;DHT22;3529;53.244;10.414;2022-09-12T02:58:53;9.70;99.90
6978;DHT22;3529;53.244;10.414;2022-09-12T03:24:08;9.40;99.90
6978;DHT22;3529;53.244;10.414;2022-09-12T03:29:14;9.40;99.90
6978;DHT22;3529;53.244;10.414;2022-09-12T03:31:54;9.40;99.90
6978;DHT22;3529;53.244;10.414;2022-09-12T03:34:21;9.30;99.90
6978;DHT22;3529;53.244;10.414;2022-09-12T03:36:48;9.30;99.90
6978;DHT22;3529;53.244;10.414;2022-09-12T03:39:14;9.30;99.90
6978;DHT22;3529;53.244;10.414;2022-09-12T03:41:40;9.30;99.90
6978;DHT22;3529;53.244;10.414;2022-09-12T03:44:05;9.30;99.90
6978;DHT22;3529;53.244;10.414;2022-09-12T03:46:31;9.20;99.90
6978;DHT22;3529;53.244;10.414;2022-09-12T03:48:57;9.20;99.90
6978;DHT22;3529;53.244;10.414;2022-09-12T03:51:22;9.20;99.90
6978;DHT22;3529;53.244;10.414;2022-09-12T03:53:48;9.20;99.90
6978;DHT22;3529;53.244;10.414;2022-09-12T03:56:14;9.10;99.90
6978;DHT22;3529;53.244;10.414;2022-09-12T03:58:39;9.10;99.90
6978;DHT22;3529;53.244;10.414;2022-09-12T04:01:10;9.10;99.90
6978;DHT22;3529;53.244;10.414;2022-09-12T04:03:38;9.10;99.90
6978;DHT22;3529;53.244;10.414;2022-09-12T04:06:05;9.00;99.90
6978;DHT22;3529;53.244;10.414;2022-09-12T04:08:30;9.10;99.90
6978;DHT22;3529;53.244;10.414;2022-09-12T04:11:04;9.10;99.90
6978;DHT22;3529;53.244;10.414;2022-09-12T04:13:30;9.20;99.90
6978;DHT22;3529;53.244;10.414;2022-09-12T04:15:57;9.20;99.90
6978;DHT22;3529;53.244;10.414;2022-09-12T04:18:23;9.20;99.90
6978;DHT22;3529;53.244;10.414;2022-09-12T04:20:49;9.20;99.90
6978;DHT22;3529;53.244;10.414;2022-09-12T04:23:15;9.30;99.90
6978;DHT22;3529;53.244;10.414;2022-09-12T04:25:40;9.30;99.90
6978;DHT22;3529;53.244;10.414;2022-09-12T04:28:06;9.30;99.90
6978;DHT22;3529;53.244;10.414;2022-09-12T04:30:32;9.30;99.90
6978;DHT22;3529;53.244;10.414;2022-09-12T04:32:59;9.30;99.90
6978;DHT22;3529;53.244;10.414;2022-09-12T04:35:24;9.40;99.90
6978;DHT22;3529;53.244;10.414;2022-09-12T04:37:50;9.30;99.90
6978;DHT22;3529;53.244;10.414;2022-09-12T04:40:16;9.30;99.90
6978;DHT22;3529;53.244;10.414;2022-09-12T04:42:42;9.30;99.90
6978;DHT22;3529;53.244;10.414;2022-09-12T04:45:08;9.30;99.90
6978;DHT22;3529;53.244;10.414;2022-09-12T04:47:33;9.30;99.90
6978;DHT22;3529;53.244;10.414;2022-09-12T04:49:59;9.30;99.90
6978;DHT22;3529;53.244;10.414;2022-09-12T04:52:25;9.20;99.90
6978;DHT22;3529;53.244;10.414;2022-09-12T04:54:51;9.20;99.90
6978;DHT22;3529;53.244;10.414;2022-09-12T04:57:17;9.20;99.90
6978;DHT22;3529;53.244;10.414;2022-09-12T04:59:43;9.20;99.90
6978;DHT22;3529;53.244;10.414;2022-09-12T05:02:08;9.10;99.90
6978;DHT22;3529;53.244;10.414;2022-09-12T05:04:34;9.10;99.90
6978;DHT22;3529;53.244;10.414;2022-09-12T05:07:00;9.10;99.90
6978;DHT22;3529;53.244;10.414;2022-09-12T05:09:26;9.10;99.90
6978;DHT22;3529;53.244;10.414;2022-09-12T05:11:52;9.00;99.90
6978;DHT22;3529;53.244;10.414;2022-09-12T05:14:18;9.00;99.90
6978;DHT22;3529;53.244;10.414;2022-09-12T05:16:43;9.00;99.90
6978;DHT22;3529;53.244;10.414;2022-09-12T05:19:10;9.10;99.90
6978;DHT22;3529;53.244;10.414;2022-09-12T05:21:36;9.10;99.90
6978;DHT22;3529;53.244;10.414;2022-09-12T05:24:02;9.10;99.90
6978;DHT22;3529;53.244;10.414;2022-09-12T05:26:31;9.10;99.90
6978;DHT22;3529;53.244;10.414;2022-09-12T05:28:56;9.10;99.90
6978;DHT22;3529;53.244;10.414;2022-09-12T05:31:24;9.20;99.90
6978;DHT22;3529;53.244;10.414;2022-09-12T05:33:52;9.20;99.90
6978;DHT22;3529;53.244;10.414;2022-09-12T05:36:28;9.20;99.90
6978;DHT22;3529;53.244;10.414;2022-09-12T05:38:54;9.20;99.90
6978;DHT22;3529;53.244;10.414;2022-09-12T05:41:25;9.20;99.90
6978;DHT22;3529;53.244;10.414;2022-09-12T05:43:56;9.30;99.90
6978;DHT22;3529;53.244;10.414;2022-09-12T05:46:26;9.30;99.90
6978;DHT22;3529;53.244;10.414;2022-09-12T05:48:52;9.40;99.90
6978;DHT22;3529;53.244;10.414;2022-09-12T05:51:24;9.40;99.90
6978;DHT22;3529;53.244;10.414;2022-09-12T05:53:58;9.40;99.90
6978;DHT22;3529;53.244;10.414;2022-09-12T05:56:27;9.50;99.90
6978;DHT22;3529;53.244;10.414;2022-09-12T05:59:04;9.60;99.90
6978;DHT22;3529;53.244;10.414;2022-09-12T06:01:31;9.50;99.90
6978;DHT22;3529;53.244;10.414;2022-09-12T06:03:59;9.60;99.90
6978;DHT22;3529;53.244;10.414;2022-09-12T06:06:26;9.70;99.90
6978;DHT22;3529;53.244;10.414;2022-09-12T06:08:56;9.80;99.90
6978;DHT22;3529;53.244;10.414;2022-09-12T06:11:24;9.90;99.90
6978;DHT22;3529;53.244;10.414;2022-09-12T06:13:50;10.00;99.90
6978;DHT22;3529;53.244;10.414;2022-09-12T06:16:21;10.00;99.90
6978;DHT22;3529;53.244;10.414;2022-09-12T06:18:51;10.20;99.90
6978;DHT22;3529;53.244;10.414;2022-09-12T06:21:18;10.30;99.90
6978;DHT22;3529;53.244;10.414;2022-09-12T06:23:44;10.40;99.90
6978;DHT22;3529;53.244;10.414;2022-09-12T06:26:11;10.50;99.90
6978;DHT22;3529;53.244;10.414;2022-09-12T06:28:39;10.60;99.90
6978;DHT22;3529;53.244;10.414;2022-09-12T06:31:13;10.60;99.90
6978;DHT22;3529;53.244;10.414;2022-09-12T06:33:42;10.70;99.90
6978;DHT22;3529;53.244;10.414;2022-09-12T06:36:11;10.80;99.90
6978;DHT22;3529;53.244;10.414;2022-09-12T06:38:38;10.90;99.90
6978;DHT22;3529;53.244;10.414;2022-09-12T06:41:05;11.00;99.90
6978;DHT22;3529;53.244;10.414;2022-09-12T06:43:32;11.00;99.90
6978;DHT22;3529;53.244;10.414;2022-09-12T06:45:58;11.10;99.90
6978;DHT22;3529;53.244;10.414;2022-09-12T06:48:24;11.20;99.90
6978;DHT22;3529;53.244;10.414;2022-09-12T06:51:07;11.30;99.90
6978;DHT22;3529;53.244;10.414;2022-09-12T06:53:34;11.30;99.90
6978;DHT22;3529;53.244;10.414;2022-09-12T06:56:22;11.40;99.90
6978;DHT22;3529;53.244;10.414;2022-09-12T06:58:50;11.50;99.90
6978;DHT22;3529;53.244;10.414;2022-09-12T07:01:21;11.60;99.90
6978;DHT22;3529;53.244;10.414;2022-09-12T07:03:49;11.70;99.90
6978;DHT22;3529;53.244;10.414;2022-09-12T07:06:16;11.80;99.90
6978;DHT22;3529;53.244;10.414;2022-09-12T07:08:42;11.90;99.90
6978;DHT22;3529;53.244;10.414;2022-09-12T07:11:12;12.00;99.90
6978;DHT22;3529;53.244;10.414;2022-09-12T07:13:39;12.10;99.90
6978;DHT22;3529;53.244;10.414;2022-09-12T07:16:06;12.20;99.90
6978;DHT22;3529;53.244;10.414;2022-09-12T07:18:33;12.30;99.90
6978;DHT22;3529;53.244;10.414;2022-09-12T07:21:03;12.40;99.90
6978;DHT22;3529;53.244;10.414;2022-09-12T07:23:30;12.50;99.90
6978;DHT22;3529;53.244;10.414;2022-09-12T07:25:57;12.70;99.90
6978;DHT22;3529;53.244;10.414;2022-09-12T07:28:28;12.80;99.90
6978;DHT22;3529;53.244;10.414;2022-09-12T07:30:55;12.90;99.90
6978;DHT22;3529;53.244;10.414;2022-09-12T07:33:22;13.00;99.90
6978;DHT22;3529;53.244;10.414;2022-09-12T07:35:48;13.20;99.90
6978;DHT22;3529;53.244;10.414;2022-09-12T07:38:14;13.30;99.90
6978;DHT22;3529;53.244;10.414;2022-09-12T07:40:40;13.50;99.90
6978;DHT22;3529;53.244;10.414;2022-09-12T07:43:06;13.60;99.90
6978;DHT22;3529;53.244;10.414;2022-09-12T07:45:32;13.70;99.90
6978;DHT22;3529;53.244;10.414;2022-09-12T07:47:57;13.90;99.90
6978;DHT22;3529;53.244;10.414;2022-09-12T07:50:23;14.00;99.90
6978;DHT22;3529;53.244;10.414;2022-09-12T07:52:48;14.10;99.90
6978;DHT22;3529;53.244;10.414;2022-09-12T07:55:15;14.40;99.90
6978;DHT22;3529;53.244;10.414;2022-09-12T07:57:41;14.50;99.90
6978;DHT22;3529;53.244;10.414;2022-09-12T08:00:07;14.70;99.90
6978;DHT22;3529;53.244;10.414;2022-09-12T08:02:33;14.90;99.90
6978;DHT22;3529;53.244;10.414;2022-09-12T08:04:59;15.10;99.90
6978;DHT22;3529;53.244;10.414;2022-09-12T08:07:24;15.20;99.90
6978;DHT22;3529;53.244;10.414;2022-09-12T08:09:50;15.40;99.90
6978;DHT22;3529;53.244;10.414;2022-09-12T08:12:16;15.50;99.90
6978;DHT22;3529;53.244;10.414;2022-09-12T08:14:42;15.60;99.90
6978;DHT22;3529;53.244;10.414;2022-09-12T08:17:08;15.90;99.90
6978;DHT22;3529;53.244;10.414;2022-09-12T08:19:33;16.10;99.90
6978;DHT22;3529;53.244;10.414;2022-09-12T08:21:59;16.40;99.90
6978;DHT22;3529;53.244;10.414;2022-09-12T08:24:25;16.80;99.90
6978;DHT22;3529;53.244;10.414;2022-09-12T08:26:50;16.90;99.90
6978;DHT22;3529;53.244;10.414;2022-09-12T08:29:16;17.00;99.90
6978;DHT22;3529;53.244;10.414;2022-09-12T08:31:42;17.10;99.90
6978;DHT22;3529;53.244;10.414;2022-09-12T08:34:08;17.20;99.90
6978;DHT22;3529;53.244;10.414;2022-09-12T08:36:34;17.30;99.90
6978;DHT22;3529;53.244;10.414;2022-09-12T08:39:02;17.50;99.90
6978;DHT22;3529;53.244;10.414;2022-09-12T08:41:40;17.80;99.90
6978;DHT22;3529;53.244;10.414;2022-09-12T08:44:35;17.90;99.90
6978;DHT22;3529;53.244;10.414;2022-09-12T08:55:01;18.40;99.90
6978;DHT22;3529;53.244;10.414;2022-09-12T08:57:27;18.50;99.90
6978;DHT22;3529;53.244;10.414;2022-09-12T08:59:53;18.50;99.90
6978;DHT22;3529;53.244;10.414;2022-09-12T09:08:34;18.80;99.90
6978;DHT22;3529;53.244;10.414;2022-09-12T09:12:03;18.80;99.90
6978;DHT22;3529;53.244;10.414;2022-09-12T09:17:43;19.10;99.90
6978;DHT22;3529;53.244;10.414;2022-09-12T09:20:16;19.30;99.90
6978;DHT22;3529;53.244;10.414;2022-09-12T09:23:19;19.50;99.90
6978;DHT22;3529;53.244;10.414;2022-09-12T09:26:05;19.60;99.90
6978;DHT22;3529;53.244;10.414;2022-09-12T09:28:51;19.80;99.90
6978;DHT22;3529;53.244;10.414;2022-09-12T09:31:22;19.90;99.90
6978;DHT22;3529;53.244;10.414;2022-09-12T09:33:50;20.00;99.90
6978;DHT22;3529;53.244;10.414;2022-09-12T09:39:18;20.60;99.90
6978;DHT22;3529;53.244;10.414;2022-09-12T09:44:43;21.20;99.90
6978;DHT22;3529;53.244;10.414;2022-09-12T09:47:11;21.60;99.90
6978;DHT22;3529;53.244;10.414;2022-09-12T09:49:38;22.00;99.90
6978;DHT22;3529;53.244;10.414;2022-09-12T09:52:06;22.30;99.90
6978;DHT22;3529;53.244;10.414;2022-09-12T10:05:32;26.20;99.90
6978;DHT22;3529;53.244;10.414;2022-09-12T10:07:58;26.70;99.90
6978;DHT22;3529;53.244;10.414;2022-09-12T10:10:24;27.00;99.90
6978;DHT22;3529;53.244;10.414;2022-09-12T10:12:51;27.40;99.90
6978;DHT22;3529;53.244;10.414;2022-09-12T10:15:30;27.70;99.90
6978;DHT22;3529;53.244;10.414;2022-09-12T10:17:57;27.70;99.90
6978;DHT22;3529;53.244;10.414;2022-09-12T10:20:34;27.50;99.90
6978;DHT22;3529;53.244;10.414;2022-09-12T10:23:14;27.10;99.90
6978;DHT22;3529;53.244;10.414;2022-09-12T10:25:56;26.50;99.90
6978;DHT22;3529;53.244;10.414;2022-09-12T10:28:36;25.80;99.90
6978;DHT22;3529;53.244;10.414;2022-09-12T10:31:03;25.20;99.90
6978;DHT22;3529;53.244;10.414;2022-09-12T10:34:09;24.80;99.90
6978;DHT22;3529;53.244;10.414;2022-09-12T10:36:25;24.50;99.90
6978;DHT22;3529;53.244;10.414;2022-09-12T10:39:01;24.20;99.90
6978;DHT22;3529;53.244;10.414;2022-09-12T10:41:37;24.00;99.90
6978;DHT22;3529;53.244;10.414;2022-09-12T10:44:13;23.80;99.90
6978;DHT22;3529;53.244;10.414;2022-09-12T10:46:38;23.60;99.90
6978;DHT22;3529;53.244;10.414;2022-09-12T10:51:52;23.40;99.90
6978;DHT22;3529;53.244;10.414;2022-09-12T10:54:23;23.50;99.90
6978;DHT22;3529;53.244;10.414;2022-09-12T11:00:08;23.40;99.90
6978;DHT22;3529;53.244;10.414;2022-09-12T11:05:51;23.50;99.90
6978;DHT22;3529;53.244;10.414;2022-09-12T11:11:17;23.50;99.90
6978;DHT22;3529;53.244;10.414;2022-09-12T11:13:51;23.40;99.90
6978;DHT22;3529;53.244;10.414;2022-09-12T11:16:26;23.40;99.90
6978;DHT22;3529;53.244;10.414;2022-09-12T11:30:07;23.60;99.90
6978;DHT22;3529;53.244;10.414;2022-09-12T11:35:28;23.60;99.90
6978;DHT22;3529;53.244;10.414;2022-09-12T11:40:39;23.70;99.90
6978;DHT22;3529;53.244;10.414;2022-09-12T11:43:37;23.80;99.90
6978;DHT22;3529;53.244;10.414;2022-09-12T11:51:28;25.20;99.90
6978;DHT22;3529;53.244;10.414;2022-09-12T11:56:45;26.40;99.90
6978;DHT22;3529;53.244;10.414;2022-09-12T11:59:35;26.50;99.90
6978;DHT22;3529;53.244;10.414;2022-09-12T12:02:10;26.40;99.90
6978;DHT22;3529;53.244;10.414;2022-09-12T12:04:43;26.40;99.90
6978;DHT22;3529;53.244;10.414;2022-09-12T12:07:14;26.20;99.90
6978;DHT22;3529;53.244;10.414;2022-09-12T12:09:58;26.20;99.90
6978;DHT22;3529;53.244;10.414;2022-09-12T12:12:26;26.20;99.90
6978;DHT22;3529;53.244;10.414;2022-09-12T12:14:54;26.00;99.90
6978;DHT22;3529;53.244;10.414;2022-09-12T12:17:24;25.70;99.90
6978;DHT22;3529;53.244;10.414;2022-09-12T12:20:02;25.40;99.90
6978;DHT22;3529;53.244;10.414;2022-09-12T12:22:29;25.10;99.90
6978;DHT22;3529;53.244;10.414;2022-09-12T12:27:57;24.90;99.90
6978;DHT22;3529;53.244;10.414;2022-09-12T12:38:33;25.10;99.90
6978;DHT22;3529;53.244;10.414;2022-09-12T12:43:51;25.10;99.90
6978;DHT22;3529;53.244;10.414;2022-09-12T12:46:21;25.10;99.90
6978;DHT22;3529;53.244;10.414;2022-09-12T12:53:58;24.80;99.90
6978;DHT22;3529;53.244;10.414;2022-09-12T12:56:40;24.90;99.90
6978;DHT22;3529;53.244;10.414;2022-09-12T12:59:21;25.00;99.90
6978;DHT22;3529;53.244;10.414;2022-09-12T13:01:50;25.10;99.90
6978;DHT22;3529;53.244;10.414;2022-09-12T13:04:20;25.10;99.90
6978;DHT22;3529;53.244;10.414;2022-09-12T13:11:58;24.90;99.90
6978;DHT22;3529;53.244;10.414;2022-09-12T13:14:48;24.70;99.90
6978;DHT22;3529;53.244;10.414;2022-09-12T13:17:42;24.60;99.90
6978;DHT22;3529;53.244;10.414;2022-09-12T13:20:24;24.30;99.90
6978;DHT22;3529;53.244;10.414;2022-09-12T13:22:51;24.10;99.90
6978;DHT22;3529;53.244;10.414;2022-09-12T13:25:23;23.90;99.90
6978;DHT22;3529;53.244;10.414;2022-09-12T13:30:36;24.10;99.90
6978;DHT22;3529;53.244;10.414;2022-09-12T13:33:12;24.00;99.90
6978;DHT22;3529;53.244;10.414;2022-09-12T13:44:18;24.10;99.90
6978;DHT22;3529;53.244;10.414;2022-09-12T13:46:45;24.30;99.90
6978;DHT22;3529;53.244;10.414;2022-09-12T13:49:33;24.40;99.90
6978;DHT22;3529;53.244;10.414;2022-09-12T13:52:15;24.40;99.90
6978;DHT22;3529;53.244;10.414;2022-09-12T13:54:44;24.30;99.90
6978;DHT22;3529;53.244;10.414;2022-09-12T13:57:31;24.10;99.90
6978;DHT22;3529;53.244;10.414;2022-09-12T13:59:59;23.90;99.90
6978;DHT22;3529;53.244;10.414;2022-09-12T14:02:27;23.70;99.90
6978;DHT22;3529;53.244;10.414;2022-09-12T14:04:54;23.60;99.90
6978;DHT22;3529;53.244;10.414;2022-09-12T14:07:44;23.60;99.90
6978;DHT22;3529;53.244;10.414;2022-09-12T14:10:41;23.70;99.90
6978;DHT22;3529;53.244;10.414;2022-09-12T14:13:15;24.10;99.90
6978;DHT22;3529;53.244;10.414;2022-09-12T14:15:47;24.70;99.90
6978;DHT22;3529;53.244;10.414;2022-09-12T14:18:26;25.00;99.90
6978;DHT22;3529;53.244;10.414;2022-09-12T14:20:57;25.10;99.90
6978;DHT22;3529;53.244;10.414;2022-09-12T14:23:31;25.00;99.90
6978;DHT22;3529;53.244;10.414;2022-09-12T14:26:00;24.70;99.90
6978;DHT22;3529;53.244;10.414;2022-09-12T14:28:28;24.40;99.90
6978;DHT22;3529;53.244;10.414;2022-09-12T14:33:47;23.90;99.90
6978;DHT22;3529;53.244;10.414;2022-09-12T14:36:33;23.80;99.90
6978;DHT22;3529;53.244;10.414;2022-09-12T14:39:05;23.70;99.90
6978;DHT22;3529;53.244;10.414;2022-09-12T14:41:37;23.60;99.90
6978;DHT22;3529;53.244;10.414;2022-09-12T14:44:06;23.60;99.90
6978;DHT22;3529;53.244;10.414;2022-09-12T14:46:40;23.60;99.90
6978;DHT22;3529;53.244;10.414;2022-09-12T14:49:30;23.60;99.90
6978;DHT22;3529;53.244;10.414;2022-09-12T14:51:59;23.60;99.90
6978;DHT22;3529;53.244;10.414;2022-09-12T14:57:03;23.90;99.90
6978;DHT22;3529;53.244;10.414;2022-09-12T14:59:36;24.20;99.90
6978;DHT22;3529;53.244;10.414;2022-09-12T15:10:34;24.50;99.90
6978;DHT22;3529;53.244;10.414;2022-09-12T15:15:43;24.30;99.90
6978;DHT22;3529;53.244;10.414;2022-09-12T15:18:09;24.10;99.90
6978;DHT22;3529;53.244;10.414;2022-09-12T15:20:39;23.80;99.90
6978;DHT22;3529;53.244;10.414;2022-09-12T15:23:10;23.50;99.90
6978;DHT22;3529;53.244;10.414;2022-09-12T15:25:36;23.30;99.90
6978;DHT22;3529;53.244;10.414;2022-09-12T15:28:12;23.10;99.90
6978;DHT22;3529;53.244;10.414;2022-09-12T15:30:39;23.00;99.90
6978;DHT22;3529;53.244;10.414;2022-09-12T15:33:05;22.80;99.90
6978;DHT22;3529;53.244;10.414;2022-09-12T15:35:32;22.60;99.90
6978;DHT22;3529;53.244;10.414;2022-09-12T15:37:58;22.60;99.90
6978;DHT22;3529;53.244;10.414;2022-09-12T15:40:23;22.60;99.90
6978;DHT22;3529;53.244;10.414;2022-09-12T15:42:50;22.60;99.90
6978;DHT22;3529;53.244;10.414;2022-09-12T15:45:28;22.60;99.90
6978;DHT22;3529;53.244;10.414;2022-09-12T15:47:54;22.50;99.90
6978;DHT22;3529;53.244;10.414;2022-09-12T15:50:20;22.40;99.90
6978;DHT22;3529;53.244;10.414;2022-09-12T15:52:46;22.40;99.90
6978;DHT22;3529;53.244;10.414;2022-09-12T15:55:25;22.30;99.90
6978;DHT22;3529;53.244;10.414;2022-09-12T15:57:52;22.30;99.90
6978;DHT22;3529;53.244;10.414;2022-09-12T16:00:18;22.40;99.90
6978;DHT22;3529;53.244;10.414;2022-09-12T16:02:48;22.40;99.90
6978;DHT22;3529;53.244;10.414;2022-09-12T16:05:24;22.50;99.90
6978;DHT22;3529;53.244;10.414;2022-09-12T16:07:52;22.50;99.90
6978;DHT22;3529;53.244;10.414;2022-09-12T16:10:21;22.60;99.90
6978;DHT22;3529;53.244;10.414;2022-09-12T16:12:46;22.60;99.90
6978;DHT22;3529;53.244;10.414;2022-09-12T16:15:18;22.60;99.90
6978;DHT22;3529;53.244;10.414;2022-09-12T16:17:44;22.60;99.90
6978;DHT22;3529;53.244;10.414;2022-09-12T16:20:10;22.60;99.90
6978;DHT22;3529;53.244;10.414;2022-09-12T16:22:36;22.40;99.90
6978;DHT22;3529;53.244;10.414;2022-09-12T16:25:02;22.50;99.90
6978;DHT22;3529;53.244;10.414;2022-09-12T16:27:28;22.30;99.90
6978;DHT22;3529;53.244;10.414;2022-09-12T16:29:54;22.20;99.90
6978;DHT22;3529;53.244;10.414;2022-09-12T16:32:19;22.10;99.90
6978;DHT22;3529;53.244;10.414;2022-09-12T16:34:45;21.90;99.90
6978;DHT22;3529;53.244;10.414;2022-09-12T16:37:11;21.90;99.90
6978;DHT22;3529;53.244;10.414;2022-09-12T16:39:36;21.70;99.90
6978;DHT22;3529;53.244;10.414;2022-09-12T16:42:02;21.70;99.90
6978;DHT22;3529;53.244;10.414;2022-09-12T16:44:27;21.50;99.90
6978;DHT22;3529;53.244;10.414;2022-09-12T16:46:53;21.40;99.90
6978;DHT22;3529;53.244;10.414;2022-09-12T16:49:19;21.20;99.90
6978;DHT22;3529;53.244;10.414;2022-09-12T16:51:46;21.10;99.90
6978;DHT22;3529;53.244;10.414;2022-09-12T16:54:15;21.00;99.90
6978;DHT22;3529;53.244;10.414;2022-09-12T16:56:42;20.80;99.90
6978;DHT22;3529;53.244;10.414;2022-09-12T16:59:08;20.60;99.90
6978;DHT22;3529;53.244;10.414;2022-09-12T17:01:37;20.50;99.90
6978;DHT22;3529;53.244;10.414;2022-09-12T17:04:02;20.30;99.90
6978;DHT22;3529;53.244;10.414;2022-09-12T17:06:28;20.10;99.90
6978;DHT22;3529;53.244;10.414;2022-09-12T17:08:58;20.00;99.90
6978;DHT22;3529;53.244;10.414;2022-09-12T17:11:36;19.90;99.90
6978;DHT22;3529;53.244;10.414;2022-09-12T17:14:04;19.70;99.90
6978;DHT22;3529;53.244;10.414;2022-09-12T17:16:31;19.50;99.90
6978;DHT22;3529;53.244;10.414;2022-09-12T17:18:57;19.40;99.90
6978;DHT22;3529;53.244;10.414;2022-09-12T17:21:22;19.20;99.90
6978;DHT22;3529;53.244;10.414;2022-09-12T17:23:49;19.10;99.90
6978;DHT22;3529;53.244;10.414;2022-09-12T17:26:15;19.00;99.90
6978;DHT22;3529;53.244;10.414;2022-09-12T17:28:41;19.00;99.90
6978;DHT22;3529;53.244;10.414;2022-09-12T17:31:09;18.80;99.90
6978;DHT22;3529;53.244;10.414;2022-09-12T17:33:36;18.70;99.90
6978;DHT22;3529;53.244;10.414;2022-09-12T17:36:10;18.50;99.90
6978;DHT22;3529;53.244;10.414;2022-09-12T17:38:37;18.40;99.90
6978;DHT22;3529;53.244;10.414;2022-09-12T17:41:18;18.30;99.90
6978;DHT22;3529;53.244;10.414;2022-09-12T17:43:45;18.20;99.90
6978;DHT22;3529;53.244;10.414;2022-09-12T17:46:11;18.10;99.90
6978;DHT22;3529;53.244;10.414;2022-09-12T17:48:37;18.00;99.90
6978;DHT22;3529;53.244;10.414;2022-09-12T17:51:13;17.90;99.90
6978;DHT22;3529;53.244;10.414;2022-09-12T17:53:40;17.80;99.90
6978;DHT22;3529;53.244;10.414;2022-09-12T17:56:07;17.70;99.90
6978;DHT22;3529;53.244;10.414;2022-09-12T17:58:33;17.60;99.90
6978;DHT22;3529;53.244;10.414;2022-09-12T18:01:02;17.50;99.90
6978;DHT22;3529;53.244;10.414;2022-09-12T18:03:47;17.40;99.90
6978;DHT22;3529;53.244;10.414;2022-09-12T18:06:13;17.30;99.90
6978;DHT22;3529;53.244;10.414;2022-09-12T18:08:39;17.20;99.90
6978;DHT22;3529;53.244;10.414;2022-09-12T18:11:05;17.20;99.90
6978;DHT22;3529;53.244;10.414;2022-09-12T18:13:32;17.10;99.90
6978;DHT22;3529;53.244;10.414;2022-09-12T18:16:06;17.00;99.90
6978;DHT22;3529;53.244;10.414;2022-09-12T18:18:34;17.00;99.90
6978;DHT22;3529;53.244;10.414;2022-09-12T18:21:00;16.90;99.90
6978;DHT22;3529;53.244;10.414;2022-09-12T18:23:26;16.90;99.90
6978;DHT22;3529;53.244;10.414;2022-09-12T18:25:59;16.80;99.90
6978;DHT22;3529;53.244;10.414;2022-09-12T18:28:25;16.80;99.90
6978;DHT22;3529;53.244;10.414;2022-09-12T18:30:51;16.70;99.90
6978;DHT22;3529;53.244;10.414;2022-09-12T18:35:42;16.70;99.90
6978;DHT22;3529;53.244;10.414;2022-09-12T18:38:08;16.70;99.90
6978;DHT22;3529;53.244;10.414;2022-09-12T18:40:33;16.70;99.90
6978;DHT22;3529;53.244;10.414;2022-09-12T18:42:59;16.60;99.90
6978;DHT22;3529;53.244;10.414;2022-09-12T18:45:25;16.60;99.90
6978;DHT22;3529;53.244;10.414;2022-09-12T18:47:51;16.60;99.90
6978;DHT22;3529;53.244;10.414;2022-09-12T18:50:16;16.60;99.90
6978;DHT22;3529;53.244;10.414;2022-09-12T18:52:42;16.60;99.90
6978;DHT22;3529;53.244;10.414;2022-09-12T18:55:14;16.60;99.90
6978;DHT22;3529;53.244;10.414;2022-09-12T18:57:39;16.50;99.90
6978;DHT22;3529;53.244;10.414;2022-09-12T19:00:08;16.50;99.90
6978;DHT22;3529;53.244;10.414;2022-09-12T19:02:34;16.40;99.90